Time;durP1;ratioP1;P1;durP2;ratioP2;P2;SDS_P1;SDS_P2;PMS_P1;PMS_P2;Temp;Humidity;BMP_temperature;BMP_pressure;BME280_temperature;BME280_humidity;BME280_pressure;Samples;Min_cycle;Max_cycle;Signal;HPM_P1;HPM_P2
2022/11/13 00:00:57;;;;;;;51.67;45.30;;;5.50;99.90;;;;;;5039307;28;20393;-65
2022/11/13 00:03:23;;;;;;;50.55;43.20;;;6.00;99.90;;;;;;5053038;28;20079;-64
2022/11/13 00:05:58;;;;;;;56.97;46.22;;;5.80;99.90;;;;;;5052613;28;20052;-66
2022/11/13 00:08:24;;;;;;;54.90;45.72;;;6.50;99.90;;;;;;5041220;28;20055;-63
2022/11/13 00:10:51;;;;;;;46.80;39.67;;;6.60;99.90;;;;;;5037460;28;20044;-63
2022/11/13 00:13:17;;;;;;;55.72;46.90;;;6.80;99.90;;;;;;5051870;28;20044;-65
2022/11/13 00:15:42;;;;;;;53.42;44.63;;;7.50;99.90;;;;;;5016272;28;20035;-64
2022/11/13 00:18:08;;;;;;;54.60;43.50;;;7.20;99.90;;;;;;5035324;28;20048;-64
2022/11/13 00:20:34;;;;;;;53.42;44.42;;;6.20;99.90;;;;;;5035462;28;20671;-64
2022/11/13 00:23:00;;;;;;;54.22;44.42;;;6.60;99.90;;;;;;5053462;28;20383;-64
2022/11/13 00:25:26;;;;;;;59.08;46.88;;;7.30;99.90;;;;;;5036611;28;20051;-64
2022/11/13 00:27:51;;;;;;;49.20;42.20;;;7.50;99.90;;;;;;5046609;28;20040;-65
2022/11/13 00:30:17;;;;;;;45.05;38.78;;;7.50;99.90;;;;;;5060144;28;20563;-64
2022/11/13 00:32:43;;;;;;;50.50;42.63;;;7.10;99.90;;;;;;5043910;28;20066;-63
2022/11/13 00:35:09;;;;;;;44.78;38.88;;;6.30;99.90;;;;;;5059423;28;20047;-63
2022/11/13 00:37:34;;;;;;;49.88;40.65;;;6.50;99.90;;;;;;5060620;28;20403;-63
2022/11/13 00:40:00;;;;;;;49.63;42.08;;;6.40;99.90;;;;;;5001275;28;20155;-65
2022/11/13 00:42:26;;;;;;;47.42;40.13;;;8.00;99.90;;;;;;5020672;28;20407;-65
2022/11/13 00:44:51;;;;;;;43.30;38.28;;;6.50;99.90;;;;;;5019356;28;20048;-66
2022/11/13 00:47:17;;;;;;;51.47;44.50;;;8.00;99.90;;;;;;5037667;28;20195;-66
2022/11/13 00:49:43;;;;;;;54.10;43.35;;;6.90;99.90;;;;;;5055660;28;20535;-65
2022/11/13 00:52:08;;;;;;;51.22;43.53;;;6.90;99.90;;;;;;5034614;28;20055;-65
2022/11/13 00:54:34;;;;;;;49.03;42.90;;;7.60;99.90;;;;;;5053002;28;20044;-64
2022/11/13 00:57:00;;;;;;;52.80;46.72;;;8.40;99.90;;;;;;5053963;28;20127;-65
2022/11/13 00:59:25;;;;;;;40.47;35.30;;;8.60;99.90;;;;;;5043543;28;20080;-63
2022/11/13 01:01:51;;;;;;;39.22;34.95;;;8.70;99.90;;;;;;5058437;28;20079;-64
2022/11/13 01:04:17;;;;;;;36.83;31.02;;;7.60;99.90;;;;;;5061326;28;20235;-64
2022/11/13 01:06:43;;;;;;;37.53;32.67;;;8.50;99.90;;;;;;5050799;28;20114;-64
2022/11/13 01:09:09;;;;;;;37.50;32.78;;;8.70;99.90;;;;;;5056097;28;20040;-66
2022/11/13 01:11:35;;;;;;;38.90;32.65;;;7.90;99.90;;;;;;5058238;28;20040;-64
2022/11/13 01:14:00;;;;;;;32.95;27.45;;;8.10;99.90;;;;;;5042228;28;20067;-65
2022/11/13 01:16:27;;;;;;;33.17;29.30;;;7.90;99.90;;;;;;5052373;28;20090;-65
2022/11/13 01:18:54;;;;;;;34.35;28.13;;;7.90;99.90;;;;;;5054225;28;20043;-65
2022/11/13 01:21:23;;;;;;;25.77;22.35;;;8.10;99.90;;;;;;5035796;28;20048;-64
2022/11/13 01:23:49;;;;;;;31.85;28.55;;;8.90;99.90;;;;;;5059550;28;20957;-63
2022/11/13 01:26:29;;;;;;;30.13;26.10;;;8.70;99.90;;;;;;5040904;28;20068;-64
2022/11/13 01:28:57;;;;;;;33.67;29.67;;;8.40;99.90;;;;;;5055170;28;20468;-64
2022/11/13 01:31:25;;;;;;;30.88;26.30;;;8.20;99.90;;;;;;5051113;28;20040;-64
2022/11/13 01:33:51;;;;;;;30.80;26.77;;;8.20;99.90;;;;;;5052314;28;20127;-63
2022/11/13 01:36:20;;;;;;;29.05;25.85;;;8.70;99.90;;;;;;5051611;28;20072;-64
2022/11/13 01:38:46;;;;;;;31.73;24.52;;;8.80;99.90;;;;;;5050907;28;20506;-64
2022/11/13 01:41:17;;;;;;;27.73;23.58;;;9.00;99.90;;;;;;5035239;28;20144;-65
2022/11/13 01:43:43;;;;;;;25.85;22.30;;;8.40;99.90;;;;;;5052325;28;20395;-63
2022/11/13 01:46:27;;;;;;;27.00;24.10;;;8.30;99.90;;;;;;5053142;28;20060;-65
2022/11/13 01:49:08;;;;;;;27.30;24.30;;;8.40;99.90;;;;;;5050909;28;20068;-65
2022/11/13 01:51:44;;;;;;;24.02;21.23;;;9.10;99.90;;;;;;5052263;28;20486;-64
2022/11/13 01:54:14;;;;;;;25.92;23.10;;;8.20;99.90;;;;;;5048499;28;20537;-64
2022/11/13 01:56:41;;;;;;;25.17;22.48;;;9.10;99.90;;;;;;5051973;28;21489;-64
2022/11/13 01:59:16;;;;;;;26.33;23.45;;;8.30;99.90;;;;;;5053574;28;20032;-63
2022/11/13 02:01:42;;;;;;;24.75;22.35;;;8.90;99.90;;;;;;5051549;28;20135;-65
2022/11/13 02:04:08;;;;;;;25.85;22.73;;;8.60;99.90;;;;;;5051720;28;20573;-65
2022/11/13 02:06:44;;;;;;;27.58;24.63;;;8.40;99.90;;;;;;5035213;28;20044;-65
2022/11/13 02:09:11;;;;;;;27.42;24.52;;;8.70;99.90;;;;;;5026124;28;20167;-63
2022/11/13 02:11:37;;;;;;;26.63;22.98;;;8.80;99.90;;;;;;5052379;28;20536;-63
2022/11/13 02:14:04;;;;;;;25.13;22.48;;;8.70;99.90;;;;;;5052214;28;20032;-65
2022/11/13 02:16:33;;;;;;;26.13;23.42;;;8.70;99.90;;;;;;5054591;28;20513;-64
2022/11/13 02:19:03;;;;;;;26.67;22.90;;;8.20;99.90;;;;;;5033363;28;20502;-64
2022/11/13 02:21:46;;;;;;;26.95;22.42;;;8.80;99.90;;;;;;5052524;28;20495;-63
2022/11/13 02:24:25;;;;;;;24.95;21.65;;;8.70;99.90;;;;;;5054346;28;20343;-64
2022/11/13 02:26:55;;;;;;;22.52;18.70;;;8.20;99.90;;;;;;5049562;28;20449;-64
2022/11/13 02:29:20;;;;;;;23.15;20.00;;;8.00;99.90;;;;;;5053822;28;20477;-65
2022/11/13 02:31:46;;;;;;;21.17;18.83;;;8.20;99.90;;;;;;5032391;28;20094;-64
2022/11/13 02:34:12;;;;;;;19.30;17.00;;;8.10;99.90;;;;;;5036828;28;20058;-64
2022/11/13 02:36:38;;;;;;;21.23;19.13;;;8.70;99.90;;;;;;5054663;28;20028;-63
2022/11/13 02:39:07;;;;;;;20.58;18.17;;;8.20;99.90;;;;;;5056264;28;20047;-63
2022/11/13 02:41:33;;;;;;;22.35;18.00;;;8.10;99.90;;;;;;5054587;28;20059;-64
2022/11/13 02:43:59;;;;;;;19.98;16.77;;;8.20;99.90;;;;;;5041996;28;20375;-64
2022/11/13 02:46:24;;;;;;;21.38;18.80;;;8.20;99.90;;;;;;5042429;28;20187;-64
2022/11/13 02:48:50;;;;;;;22.45;19.65;;;8.50;99.90;;;;;;5039955;28;20043;-64
2022/11/13 02:51:16;;;;;;;24.02;20.85;;;8.90;99.90;;;;;;5058472;28;20032;-63
2022/11/13 02:53:41;;;;;;;21.55;18.73;;;8.70;99.90;;;;;;5059631;28;20289;-63
2022/11/13 02:56:07;;;;;;;20.00;17.73;;;8.30;99.90;;;;;;5040748;28;20043;-63
2022/11/13 02:58:33;;;;;;;20.98;18.33;;;8.10;99.90;;;;;;5038653;28;20051;-64
2022/11/13 03:01:01;;;;;;;21.20;19.00;;;8.60;99.90;;;;;;5058718;28;20036;-64
2022/11/13 03:03:27;;;;;;;23.63;20.20;;;8.70;99.90;;;;;;5057595;28;20039;-63
2022/11/13 03:05:52;;;;;;;25.95;20.15;;;8.00;99.90;;;;;;5058741;28;20043;-65
2022/11/13 03:08:18;;;;;;;25.50;21.50;;;7.80;99.90;;;;;;5078841;28;20067;-64
2022/11/13 03:10:45;;;;;;;25.48;21.88;;;8.00;99.90;;;;;;5043215;28;20501;-63
2022/11/13 03:13:10;;;;;;;26.13;22.33;;;7.80;99.90;;;;;;5055908;28;20036;-65
2022/11/13 03:15:36;;;;;;;25.75;21.45;;;8.50;99.90;;;;;;5060082;28;20046;-65
2022/11/13 03:18:04;;;;;;;26.65;22.73;;;8.50;99.90;;;;;;5043965;28;20032;-65
2022/11/13 03:20:30;;;;;;;25.60;22.83;;;8.40;99.90;;;;;;5057722;28;20052;-64
2022/11/13 03:22:56;;;;;;;27.10;23.35;;;8.50;99.90;;;;;;5077215;28;20308;-68
2022/11/13 03:25:21;;;;;;;26.02;23.17;;;8.60;99.90;;;;;;5058378;28;20059;-64
2022/11/13 03:27:47;;;;;;;26.48;23.67;;;8.60;99.90;;;;;;5057969;28;20040;-65
2022/11/13 03:30:13;;;;;;;25.98;23.13;;;8.60;99.90;;;;;;5056704;28;20119;-66
2022/11/13 03:32:38;;;;;;;27.10;22.58;;;8.00;99.90;;;;;;5078555;28;20048;-65
2022/11/13 03:35:05;;;;;;;26.88;24.05;;;8.40;99.90;;;;;;5058441;28;20508;-65
2022/11/13 03:37:31;;;;;;;25.92;22.40;;;7.70;99.90;;;;;;5059074;28;20151;-65
2022/11/13 03:39:56;;;;;;;26.35;23.35;;;7.90;99.90;;;;;;5076476;28;20052;-64
2022/11/13 03:42:22;;;;;;;27.50;24.50;;;8.10;99.90;;;;;;5058361;28;20083;-66
2022/11/13 03:44:48;;;;;;;25.13;22.45;;;7.70;99.90;;;;;;5039389;28;20310;-66
2022/11/13 03:47:14;;;;;;;25.25;22.63;;;8.70;99.90;;;;;;5025384;28;20101;-65
2022/11/13 03:49:40;;;;;;;24.60;21.92;;;8.50;99.90;;;;;;5077555;28;20086;-65
2022/11/13 03:52:06;;;;;;;25.23;21.33;;;7.70;99.90;;;;;;5057422;28;20572;-67
2022/11/13 03:54:31;;;;;;;24.70;21.50;;;8.10;99.90;;;;;;5058499;28;20790;-65
2022/11/13 03:56:57;;;;;;;26.05;21.67;;;7.90;99.90;;;;;;5076721;28;20151;-65
2022/11/13 03:59:23;;;;;;;24.85;22.08;;;7.70;99.90;;;;;;5040191;28;20075;-65
2022/11/13 04:01:48;;;;;;;22.65;20.20;;;8.40;99.90;;;;;;5039975;28;20098;-66
2022/11/13 04:04:14;;;;;;;25.70;23.00;;;7.70;99.90;;;;;;5041702;28;20047;-65
2022/11/13 04:06:40;;;;;;;26.85;21.40;;;8.50;99.90;;;;;;5057393;28;20048;-66
2022/11/13 04:09:06;;;;;;;25.23;20.83;;;8.40;99.90;;;;;;5041737;28;20486;-64
2022/11/13 04:11:32;;;;;;;22.38;19.42;;;8.10;99.90;;;;;;5056898;28;20127;-65
2022/11/13 04:13:58;;;;;;;24.48;21.90;;;8.00;99.90;;;;;;5056603;28;20440;-66
2022/11/13 04:16:24;;;;;;;24.83;20.55;;;7.40;99.90;;;;;;5054820;28;20044;-65
2022/11/13 04:18:50;;;;;;;23.63;21.10;;;8.60;99.90;;;;;;5058153;28;20218;-65
2022/11/13 04:21:16;;;;;;;26.42;22.80;;;8.50;99.90;;;;;;5041672;28;20658;-65
2022/11/13 04:23:42;;;;;;;25.40;22.67;;;8.40;99.90;;;;;;5040579;28;20364;-64
2022/11/13 04:26:07;;;;;;;25.13;21.48;;;7.80;99.90;;;;;;5042823;28;20093;-65
2022/11/13 04:28:33;;;;;;;23.45;20.60;;;8.30;99.90;;;;;;5042430;28;20110;-66
2022/11/13 04:30:59;;;;;;;22.98;20.55;;;8.40;99.90;;;;;;5040146;28;20044;-66
2022/11/13 04:33:24;;;;;;;24.63;20.38;;;8.20;99.90;;;;;;5074499;28;20181;-65
2022/11/13 04:35:50;;;;;;;23.15;20.30;;;8.40;99.90;;;;;;5058443;28;20619;-66
2022/11/13 04:38:16;;;;;;;23.50;19.67;;;8.10;99.90;;;;;;5021673;28;20032;-66
2022/11/13 04:40:42;;;;;;;24.50;21.15;;;8.40;99.90;;;;;;5076193;28;20047;-65
2022/11/13 04:43:07;;;;;;;25.88;21.65;;;7.50;99.90;;;;;;5041061;28;20580;-66
2022/11/13 04:45:34;;;;;;;23.75;19.08;;;7.50;99.90;;;;;;5038422;28;20092;-65
2022/11/13 04:47:59;;;;;;;27.35;22.35;;;8.20;99.90;;;;;;5054572;28;20041;-63
2022/11/13 04:50:25;;;;;;;28.00;22.20;;;7.50;99.90;;;;;;5074957;28;20046;-64
2022/11/13 04:52:51;;;;;;;26.52;22.83;;;8.00;99.90;;;;;;5055786;28;20044;-63
2022/11/13 04:55:17;;;;;;;24.85;22.20;;;7.90;99.90;;;;;;5056168;28;20551;-65
2022/11/13 04:57:42;;;;;;;24.52;20.50;;;8.40;99.90;;;;;;5057525;28;20138;-65
2022/11/13 05:00:09;;;;;;;24.70;21.42;;;7.40;99.90;;;;;;5056872;28;20508;-66
2022/11/13 05:02:35;;;;;;;19.30;16.38;;;7.20;99.90;;;;;;5057187;28;20058;-64
2022/11/13 05:05:01;;;;;;;23.42;19.90;;;7.80;99.90;;;;;;5036384;28;20174;-66
2022/11/13 05:07:26;;;;;;;22.08;18.70;;;7.30;99.90;;;;;;5023374;28;20062;-63
2022/11/13 05:09:52;;;;;;;21.80;19.27;;;7.10;99.90;;;;;;5061365;28;20127;-63
2022/11/13 05:12:19;;;;;;;24.48;21.38;;;7.00;99.90;;;;;;5044842;28;20562;-63
2022/11/13 05:14:44;;;;;;;23.02;19.50;;;8.00;99.90;;;;;;5064033;28;20294;-63
2022/11/13 05:17:11;;;;;;;22.15;19.85;;;7.90;99.90;;;;;;5063310;28;20032;-63
2022/11/13 05:19:38;;;;;;;21.95;19.35;;;7.20;99.90;;;;;;5044954;28;20186;-63
2022/11/13 05:22:04;;;;;;;21.70;19.10;;;7.00;99.90;;;;;;5082017;28;20171;-62
2022/11/13 05:24:31;;;;;;;21.88;19.67;;;8.10;99.90;;;;;;5080722;28;20043;-65
2022/11/13 05:26:56;;;;;;;26.27;23.45;;;7.10;99.90;;;;;;5060239;28;20047;-64
2022/11/13 05:29:22;;;;;;;26.48;23.35;;;8.10;99.90;;;;;;5081816;28;20031;-64
2022/11/13 05:31:48;;;;;;;29.67;25.15;;;6.90;99.90;;;;;;5058186;28;20462;-64
2022/11/13 05:34:14;;;;;;;26.58;22.52;;;7.50;99.90;;;;;;5040101;28;20048;-65
2022/11/13 05:36:40;;;;;;;29.85;26.55;;;7.90;99.90;;;;;;5025222;28;20036;-63
2022/11/13 05:39:06;;;;;;;26.52;23.08;;;6.60;99.90;;;;;;5062446;28;20093;-63
2022/11/13 05:41:32;;;;;;;31.20;26.42;;;7.00;99.90;;;;;;5062854;28;20055;-63
2022/11/13 05:43:58;;;;;;;32.22;27.40;;;7.30;99.90;;;;;;5062640;28;20280;-63
2022/11/13 05:46:27;;;;;;;28.02;25.02;;;7.90;99.90;;;;;;5058656;28;20497;-66
2022/11/13 05:49:00;;;;;;;31.60;27.92;;;7.70;99.90;;;;;;5026317;28;20161;-64
2022/11/13 05:51:29;;;;;;;25.48;20.60;;;6.20;99.90;;;;;;5020103;28;20059;-64
2022/11/13 05:53:54;;;;;;;26.27;22.30;;;6.50;99.90;;;;;;5037720;28;20122;-65
2022/11/13 05:56:26;;;;;;;25.67;22.25;;;7.60;99.90;;;;;;5054385;28;20058;-64
2022/11/13 05:58:53;;;;;;;27.48;23.95;;;7.50;99.90;;;;;;5059090;28;20490;-63
2022/11/13 06:01:28;;;;;;;31.00;24.42;;;6.10;99.90;;;;;;5062634;28;20101;-63
2022/11/13 06:03:55;;;;;;;27.95;23.77;;;6.20;99.90;;;;;;5078159;28;20088;-65
2022/11/13 06:06:22;;;;;;;25.70;23.00;;;6.00;99.90;;;;;;5043891;28;20051;-65
2022/11/13 06:08:49;;;;;;;25.52;21.92;;;6.00;99.90;;;;;;5060164;28;20441;-65
2022/11/13 06:11:17;;;;;;;25.60;22.08;;;6.50;99.90;;;;;;5061183;28;20062;-65
2022/11/13 06:13:43;;;;;;;25.15;22.13;;;6.80;99.90;;;;;;5066051;28;20072;-64
2022/11/13 06:16:13;;;;;;;25.85;22.25;;;6.50;99.90;;;;;;5077977;28;20061;-64
2022/11/13 06:18:39;;;;;;;26.67;22.25;;;6.40;99.90;;;;;;5076115;28;20036;-63
2022/11/13 06:21:08;;;;;;;29.27;24.50;;;6.10;99.90;;;;;;5043101;28;20276;-63
2022/11/13 06:23:35;;;;;;;26.90;24.05;;;6.10;99.90;;;;;;5055842;28;20040;-63
2022/11/13 06:26:03;;;;;;;24.35;21.75;;;6.10;99.90;;;;;;5056877;28;20093;-64
2022/11/13 06:28:29;;;;;;;28.73;24.40;;;7.30;99.90;;;;;;5077840;28;20040;-63
2022/11/13 06:30:55;;;;;;;27.73;24.73;;;6.10;99.90;;;;;;5060155;28;20059;-63
2022/11/13 06:33:20;;;;;;;30.45;23.95;;;5.80;99.90;;;;;;5057360;28;20304;-63
2022/11/13 06:35:46;;;;;;;28.33;24.70;;;6.30;99.90;;;;;;5077266;28;20036;-64
2022/11/13 06:38:12;;;;;;;28.20;22.80;;;6.80;99.90;;;;;;5059053;28;20036;-63
2022/11/13 06:40:38;;;;;;;30.08;25.08;;;5.80;99.90;;;;;;5056909;28;20056;-64
2022/11/13 06:43:04;;;;;;;29.65;25.48;;;7.20;99.90;;;;;;5057879;28;20478;-63
2022/11/13 06:45:30;;;;;;;27.75;24.75;;;7.10;99.90;;;;;;5077618;28;20414;-64
2022/11/13 06:47:55;;;;;;;32.97;27.85;;;6.10;99.90;;;;;;5057719;28;20032;-64
2022/11/13 06:50:21;;;;;;;33.47;27.70;;;6.30;99.90;;;;;;5075065;28;20052;-64
2022/11/13 06:52:46;;;;;;;28.02;23.92;;;5.90;99.90;;;;;;5059011;28;20183;-64
2022/11/13 06:55:12;;;;;;;30.02;26.58;;;5.80;99.90;;;;;;5055874;28;20063;-64
2022/11/13 06:57:38;;;;;;;32.35;26.85;;;6.90;99.90;;;;;;5039727;28;20723;-64
2022/11/13 07:00:05;;;;;;;28.63;25.30;;;6.60;99.90;;;;;;5058505;28;20044;-64
2022/11/13 07:02:30;;;;;;;28.55;22.25;;;6.60;99.90;;;;;;5042061;28;20463;-65
2022/11/13 07:04:56;;;;;;;29.20;23.25;;;5.10;99.90;;;;;;5075223;28;20035;-63
2022/11/13 07:07:21;;;;;;;28.25;24.05;;;6.90;99.90;;;;;;5041793;28;20130;-64
2022/11/13 07:09:47;;;;;;;31.83;25.33;;;5.60;99.90;;;;;;5058188;28;20497;-64
2022/11/13 07:12:13;;;;;;;28.17;24.90;;;5.40;99.90;;;;;;5054907;28;20482;-64
2022/11/13 07:14:38;;;;;;;34.85;29.33;;;5.10;99.90;;;;;;5057613;28;20364;-64
2022/11/13 07:17:04;;;;;;;30.70;25.88;;;6.50;99.90;;;;;;5058804;28;20024;-65
2022/11/13 07:19:30;;;;;;;31.75;27.50;;;6.80;99.90;;;;;;5076037;28;20490;-64
2022/11/13 07:21:55;;;;;;;31.77;28.05;;;6.70;99.90;;;;;;5057849;28;20122;-64
2022/11/13 07:24:21;;;;;;;29.83;25.10;;;5.40;99.90;;;;;;5058779;28;20125;-63
2022/11/13 07:26:46;;;;;;;31.27;26.30;;;6.60;99.90;;;;;;5056001;28;20063;-64
2022/11/13 07:29:12;;;;;;;30.45;26.65;;;6.50;99.90;;;;;;5076028;28;20051;-64
2022/11/13 07:31:38;;;;;;;32.22;26.73;;;6.60;99.90;;;;;;5077523;28;20056;-64
2022/11/13 07:34:03;;;;;;;31.45;27.27;;;6.30;99.90;;;;;;5058533;28;20409;-65
2022/11/13 07:36:29;;;;;;;31.45;27.48;;;6.80;99.90;;;;;;5040512;28;20047;-63
2022/11/13 07:38:55;;;;;;;30.80;27.00;;;6.20;99.90;;;;;;5029031;28;20115;-64
2022/11/13 07:41:20;;;;;;;33.28;27.90;;;6.80;99.90;;;;;;5065589;28;20078;-62
2022/11/13 07:43:46;;;;;;;32.22;27.65;;;6.70;99.90;;;;;;5047013;28;20044;-64
2022/11/13 07:46:12;;;;;;;32.35;27.13;;;6.80;99.90;;;;;;5076960;28;20565;-63
2022/11/13 07:48:38;;;;;;;30.42;27.20;;;5.60;99.90;;;;;;5058817;28;20509;-65
2022/11/13 07:51:03;;;;;;;28.48;25.33;;;5.60;99.90;;;;;;5058422;28;20055;-67
2022/11/13 07:53:30;;;;;;;27.55;24.08;;;6.30;99.90;;;;;;5028710;28;20040;-65
2022/11/13 07:55:59;;;;;;;26.08;22.73;;;6.90;99.90;;;;;;5060613;28;20132;-64
2022/11/13 07:58:25;;;;;;;26.80;23.88;;;5.40;99.90;;;;;;5075013;28;20749;-66
2022/11/13 08:00:51;;;;;;;26.23;22.45;;;5.90;99.90;;;;;;5076804;28;20036;-66
2022/11/13 08:03:17;;;;;;;29.42;23.80;;;7.00;99.90;;;;;;5043027;28;20051;-64
2022/11/13 08:05:43;;;;;;;31.13;24.05;;;6.80;99.90;;;;;;5041571;28;20576;-66
2022/11/13 08:08:13;;;;;;;23.80;21.20;;;7.20;99.90;;;;;;5042818;28;20383;-66
2022/11/13 08:10:39;;;;;;;24.63;22.05;;;7.10;99.90;;;;;;5042686;28;20040;-67
2022/11/13 08:13:07;;;;;;;25.92;21.10;;;6.40;99.90;;;;;;5058536;28;20048;-66
2022/11/13 08:15:33;;;;;;;24.35;21.52;;;7.10;99.90;;;;;;5054483;28;20560;-65
2022/11/13 08:18:01;;;;;;;25.83;21.75;;;7.00;99.90;;;;;;5040935;28;20036;-65
2022/11/13 08:20:28;;;;;;;24.65;21.55;;;7.40;99.90;;;;;;5041365;28;20032;-66
2022/11/13 08:22:59;;;;;;;24.20;21.08;;;7.40;99.90;;;;;;5057334;28;20067;-66
2022/11/13 08:25:25;;;;;;;22.00;19.40;;;6.60;99.90;;;;;;5040669;28;20369;-65
2022/11/13 08:27:52;;;;;;;20.92;18.73;;;6.30;99.90;;;;;;5022383;28;20051;-65
2022/11/13 08:30:18;;;;;;;24.77;19.77;;;7.20;99.90;;;;;;5053142;28;20066;-65
2022/11/13 08:32:45;;;;;;;20.20;18.10;;;6.50;99.90;;;;;;5075905;28;20044;-65
2022/11/13 08:35:11;;;;;;;18.95;16.88;;;6.70;99.90;;;;;;5057842;28;20135;-66
2022/11/13 08:37:37;;;;;;;20.63;16.42;;;6.80;99.90;;;;;;5054844;28;20400;-66
2022/11/13 08:40:03;;;;;;;18.58;16.00;;;7.60;99.90;;;;;;5041928;28;20048;-65
2022/11/13 08:42:28;;;;;;;16.33;14.55;;;8.00;99.90;;;;;;5058593;28;20062;-64
2022/11/13 08:44:54;;;;;;;18.92;14.95;;;7.20;99.90;;;;;;5037994;28;20397;-64
2022/11/13 08:47:20;;;;;;;17.23;15.10;;;7.70;99.90;;;;;;5053725;28;20530;-64
2022/11/13 08:49:45;;;;;;;16.63;14.23;;;7.90;99.90;;;;;;5077143;28;20040;-63
2022/11/13 08:52:11;;;;;;;17.80;13.55;;;8.00;99.90;;;;;;5075348;28;20450;-65
2022/11/13 08:54:37;;;;;;;14.43;12.93;;;8.20;99.90;;;;;;5057535;28;20062;-64
2022/11/13 08:57:07;;;;;;;15.02;12.00;;;8.60;99.90;;;;;;5055533;28;20036;-64
2022/11/13 08:59:32;;;;;;;12.88;11.18;;;8.80;99.90;;;;;;5022680;28;20044;-65
2022/11/13 09:01:58;;;;;;;14.70;11.48;;;8.60;99.90;;;;;;5010766;28;20497;-65
2022/11/13 09:04:27;;;;;;;12.90;11.32;;;8.70;99.90;;;;;;5057919;28;20042;-64
2022/11/13 09:06:53;;;;;;;14.13;12.32;;;8.80;99.90;;;;;;5057525;28;20039;-67
2022/11/13 09:09:19;;;;;;;12.15;10.75;;;8.50;99.90;;;;;;5037323;28;20040;-65
2022/11/13 09:11:45;;;;;;;16.40;12.38;;;8.60;99.90;;;;;;5060412;28;20051;-66
2022/11/13 09:14:11;;;;;;;15.00;13.40;;;8.80;99.90;;;;;;5041833;28;20469;-66
2022/11/13 09:16:37;;;;;;;14.98;13.48;;;8.90;99.90;;;;;;5056311;28;21238;-66
2022/11/13 09:19:02;;;;;;;17.10;13.85;;;9.00;99.90;;;;;;5056398;28;20118;-67
2022/11/13 09:21:28;;;;;;;15.05;12.77;;;8.80;99.90;;;;;;5057558;28;20516;-67
2022/11/13 09:23:54;;;;;;;14.68;12.63;;;9.00;99.90;;;;;;5056753;28;20477;-65
2022/11/13 09:26:20;;;;;;;16.52;12.73;;;9.00;99.90;;;;;;5058006;28;20078;-66
2022/11/13 09:28:46;;;;;;;15.68;13.50;;;9.20;99.90;;;;;;5057516;28;20114;-65
2022/11/13 09:31:11;;;;;;;13.52;11.88;;;9.30;99.90;;;;;;5023986;28;20040;-64
2022/11/13 09:33:37;;;;;;;12.38;11.07;;;9.90;99.90;;;;;;5054124;28;20198;-66
2022/11/13 09:36:10;;;;;;;13.20;11.60;;;10.20;99.90;;;;;;5046368;28;20246;-65
2022/11/13 09:38:36;;;;;;;13.00;11.07;;;11.10;99.90;;;;;;5080188;28;20521;-64
2022/11/13 09:41:13;;;;;;;10.93;9.48;;;11.50;99.90;;;;;;5059236;28;20853;-65
2022/11/13 09:43:54;;;;;;;12.68;10.40;;;11.90;99.90;;;;;;5059558;28;20044;-64
2022/11/13 09:46:46;;;;;;;12.98;9.35;;;12.10;99.90;;;;;;5058835;28;20468;-63
2022/11/13 09:49:16;;;;;;;10.93;9.80;;;12.40;99.90;;;;;;5042988;28;20076;-64
2022/11/13 09:51:54;;;;;;;12.30;9.23;;;12.80;99.90;;;;;;5077636;28;20041;-64
2022/11/13 09:54:20;;;;;;;10.27;8.82;;;12.90;99.90;;;;;;5076769;28;20089;-65
2022/11/13 09:57:10;;;;;;;12.15;9.85;;;13.30;99.90;;;;;;5077648;28;20077;-64
2022/11/13 10:00:04;;;;;;;9.85;8.63;;;13.30;99.90;;;;;;5079691;28;20377;-64
2022/11/13 10:02:45;;;;;;;9.27;8.27;;;13.60;99.90;;;;;;5078525;28;20570;-63
2022/11/13 10:05:28;;;;;;;10.60;9.27;;;13.60;99.90;;;;;;5076244;28;20101;-64
2022/11/13 10:08:06;;;;;;;9.13;8.30;;;13.70;99.90;;;;;;5060859;28;20039;-63
2022/11/13 10:11:23;;;;;;;9.18;8.13;;;13.80;99.90;;;;;;5058622;28;20424;-65
2022/11/13 10:13:58;;;;;;;9.85;8.48;;;14.00;99.90;;;;;;4999982;28;21692;-66
2022/11/13 10:16:39;;;;;;;11.13;8.38;;;14.30;99.90;;;;;;5015983;28;20107;-64
2022/11/13 10:19:15;;;;;;;10.43;8.48;;;14.40;99.90;;;;;;5034390;28;20082;-67
2022/11/13 10:21:47;;;;;;;9.48;8.52;;;14.70;99.90;;;;;;5073254;28;20031;-64
2022/11/13 10:24:32;;;;;;;8.82;8.02;;;14.60;99.90;;;;;;5058756;28;20067;-64
2022/11/13 10:26:58;;;;;;;11.18;8.60;;;14.40;99.90;;;;;;5075551;28;20081;-63
2022/11/13 10:29:27;;;;;;;9.18;7.88;;;14.10;99.90;;;;;;5058375;28;20032;-64
2022/11/13 10:31:53;;;;;;;9.65;8.75;;;13.80;99.90;;;;;;5077932;28;20476;-63
2022/11/13 10:34:19;;;;;;;9.40;8.43;;;14.10;99.90;;;;;;5056397;28;20036;-63
2022/11/13 10:37:07;;;;;;;11.00;8.00;;;14.40;99.90;;;;;;5073135;28;20434;-64
2022/11/13 10:39:41;;;;;;;9.07;8.23;;;14.30;99.90;;;;;;5057140;28;20088;-64
2022/11/13 10:42:20;;;;;;;8.68;7.85;;;14.50;99.90;;;;;;5056757;28;20135;-63
2022/11/13 10:44:55;;;;;;;9.10;8.18;;;14.40;99.90;;;;;;5058595;28;20027;-63
2022/11/13 10:47:22;;;;;;;8.73;7.82;;;14.00;99.90;;;;;;5059242;28;20255;-64
2022/11/13 10:49:48;;;;;;;8.32;7.45;;;14.10;99.90;;;;;;5006864;28;20042;-64
2022/11/13 10:52:21;;;;;;;8.93;8.05;;;14.30;99.90;;;;;;5039740;28;20099;-65
2022/11/13 10:54:48;;;;;;;8.93;8.02;;;14.10;99.90;;;;;;5057450;28;20066;-64
2022/11/13 10:57:29;;;;;;;9.18;8.27;;;14.20;99.90;;;;;;5057238;28;20033;-64
2022/11/13 10:59:55;;;;;;;8.75;7.95;;;13.90;99.90;;;;;;5040946;28;20486;-65
2022/11/13 11:02:23;;;;;;;10.38;9.18;;;13.60;99.90;;;;;;5040154;28;20101;-64
2022/11/13 11:04:59;;;;;;;10.02;8.60;;;13.40;99.90;;;;;;5037648;28;20418;-64
2022/11/13 11:07:25;;;;;;;9.93;8.93;;;13.00;99.90;;;;;;5023883;28;20047;-64
2022/11/13 11:09:51;;;;;;;10.77;9.40;;;12.70;99.90;;;;;;5036550;28;20410;-65
2022/11/13 11:12:19;;;;;;;10.38;9.38;;;12.70;99.90;;;;;;5039306;28;20048;-63
2022/11/13 11:15:00;;;;;;;10.10;9.07;;;12.80;99.90;;;;;;5058375;28;20029;-64
2022/11/13 11:17:29;;;;;;;10.45;9.32;;;13.40;99.90;;;;;;5055665;28;20098;-64
2022/11/13 11:20:17;;;;;;;10.23;9.20;;;14.30;99.90;;;;;;5053588;28;20044;-64
2022/11/13 11:22:45;;;;;;;9.80;8.80;;;14.70;99.90;;;;;;5036989;28;20602;-65
2022/11/13 11:25:19;;;;;;;10.00;8.60;;;14.80;99.90;;;;;;5053594;28;20048;-64
2022/11/13 11:27:55;;;;;;;9.73;7.82;;;15.20;99.90;;;;;;5021296;28;20410;-65
2022/11/13 11:30:23;;;;;;;11.20;8.20;;;15.60;99.90;;;;;;5039453;28;20581;-64
2022/11/13 11:33:11;;;;;;;10.57;7.65;;;15.80;99.90;;;;;;5059174;28;20305;-65
2022/11/13 11:35:51;;;;;;;8.63;7.72;;;15.90;99.90;;;;;;5057029;28;20093;-63
2022/11/13 11:38:36;;;;;;;8.00;7.20;;;15.60;99.90;;;;;;5057860;28;20572;-63
2022/11/13 11:41:13;;;;;;;8.02;7.22;;;15.00;99.90;;;;;;5055535;28;20056;-65
2022/11/13 11:43:43;;;;;;;8.98;7.60;;;14.30;99.90;;;;;;5040666;28;20130;-64
2022/11/13 11:46:13;;;;;;;8.05;7.15;;;13.70;99.90;;;;;;5056066;28;21351;-64
2022/11/13 11:48:39;;;;;;;8.55;7.38;;;13.50;99.90;;;;;;5055183;28;20048;-65
2022/11/13 11:51:31;;;;;;;8.52;7.15;;;13.60;99.90;;;;;;5053086;28;20070;-64
2022/11/13 11:54:08;;;;;;;9.65;8.35;;;14.00;99.90;;;;;;5055486;28;20293;-64
2022/11/13 11:56:36;;;;;;;10.77;8.65;;;14.20;99.90;;;;;;5052627;28;20039;-64
2022/11/13 11:59:30;;;;;;;9.40;8.32;;;14.60;99.90;;;;;;5018845;28;20949;-64
2022/11/13 12:02:05;;;;;;;9.27;8.30;;;14.80;99.90;;;;;;5055235;28;21067;-64
2022/11/13 12:05:03;;;;;;;8.68;7.80;;;15.40;99.90;;;;;;5055693;28;20044;-64
2022/11/13 12:07:48;;;;;;;9.68;8.20;;;16.00;99.90;;;;;;5016922;28;20048;-64
2022/11/13 12:10:24;;;;;;;8.30;7.47;;;16.50;99.90;;;;;;5016429;28;20056;-64
2022/11/13 12:13:11;;;;;;;8.85;7.80;;;17.00;99.90;;;;;;5054313;28;20525;-64
2022/11/13 12:15:47;;;;;;;7.97;6.90;;;17.40;99.90;;;;;;5035351;28;20094;-63
2022/11/13 12:18:35;;;;;;;8.18;7.03;;;17.60;99.90;;;;;;5056909;28;20835;-64
2022/11/13 12:21:12;;;;;;;8.43;7.28;;;17.90;99.90;;;;;;5055720;28;20037;-64
2022/11/13 12:24:03;;;;;;;7.20;6.45;;;17.80;99.90;;;;;;5054486;28;22166;-65
2022/11/13 12:26:40;;;;;;;6.88;6.18;;;17.70;99.90;;;;;;5055900;28;20052;-64
2022/11/13 12:29:42;;;;;;;7.13;6.43;;;17.50;99.90;;;;;;5036704;28;20044;-65
2022/11/13 12:32:23;;;;;;;6.38;5.88;;;17.50;99.90;;;;;;5043690;28;20083;-64
2022/11/13 12:34:54;;;;;;;7.05;6.30;;;17.20;99.90;;;;;;5062392;28;20040;-64
2022/11/13 12:37:31;;;;;;;7.88;7.07;;;16.90;99.90;;;;;;5062405;28;20953;-64
2022/11/13 12:40:05;;;;;;;7.30;6.60;;;16.60;99.90;;;;;;5045247;28;20066;-64
2022/11/13 12:42:53;;;;;;;9.07;7.10;;;16.70;99.90;;;;;;5040972;28;20052;-66
2022/11/13 12:45:27;;;;;;;7.10;6.43;;;16.40;99.90;;;;;;5034809;28;20137;-65
2022/11/13 12:47:52;;;;;;;7.50;6.70;;;16.60;99.90;;;;;;5038354;28;20048;-63